1894 cryptocurrencies
Total Market Cap £1,178,142,542,984
Total Volume 24h £2,259,141,621
Breaking news
Cryptocurrency Price 24h Change 24h % Change Low High arrow_drop_down Volume 24h Performance Last updated
1 BitVolt BitVolt £0.00000000 0.00000000 8.44% £0.00000000 £0.00000000 1,460,452,018,452,900,085,760.00 VOLT 2022-06-06 11:00:29
2 MiloCoin MiloCoin £0.00000003 0.00000000 7.67% £0.00000003 £0.00000003 3,057,393,350,964.00 MILO 2022-06-06 11:00:33
3 UFO Coin UFO Coin £0.000002 0.00000000 3.96% £0.000002 £0.000002 199,139,400,425.78 UFO 2022-06-06 11:05:07
4 Node Node £0.000036 0.000002 6.50% £0.000033 £0.000043 7,936,098,234.90 NODE 2022-06-06 11:05:07
5 Dent Dent £0.0013 0.0001 9.62% £0.0012 £0.0013 5,603,244,004.00 DENT 2022-06-06 11:00:35
6 Kin Kin £0.000016 0.000001 6.00% £0.000015 £0.000017 3,008,907,241.70 KIN 2022-06-06 11:00:37
7 MintCoin MintCoin £0.000006 0.00000000 2.78% £0.000005 £0.000006 2,828,787,700.30 MINT 2022-06-06 11:05:04
8 Dentacoin Dentacoin £0.000007 0.00000000 0.59% £0.000007 £0.000007 2,118,206,658.00 DCN 2022-06-06 11:00:43
9 GhostCoin GhostCoin £0.00000001 0.00000000 0.00% £0.00000001 £0.00000001 908,219,468.00 GHC 2022-05-06 11:05:06
10 GoldPieces GoldPieces £0.0005 -0.000010 -1.84% £0.0005 £0.0006 558,317,282.44 GP 2022-06-06 11:00:09
11 Nybble Nybble £0.000047 0.000002 3.55% £0.000045 £0.000048 531,335,579.00 NBL 2022-06-06 11:05:04
12 Dogecoin Dogecoin £0.08 0.0030 3.70% £0.08 £0.08 398,822,137.46 DOGE 2022-06-06 11:05:03
13 MartexCoin MartexCoin £0.0013 0.000039 3.01% £0.0013 £0.0014 376,791,193.27 MXT 2022-06-06 11:00:29
14 Adbank Adbank £0.0003 0.000021 7.21% £0.0003 £0.0003 340,218,464.17 ADB 2022-06-06 11:01:05
15 GridCoin GridCoin £0.0078 -0.000029 -0.37% £0.0076 £0.0083 324,801,267.90 GRC 2022-06-06 11:05:06
16 Verge Verge £0.0051 0.0003 5.36% £0.0047 £0.0054 278,697,986.04 XVG 2022-06-06 11:05:03
17 Encrypgen Encrypgen £0.000097 0.000004 4.11% £0.000092 £0.0001 252,122,576.33 DNA 2022-06-06 11:00:38
18 DigiByte DigiByte £0.01 0.0011 9.57% £0.01 £0.01 249,712,935.48 DGB 2022-06-06 11:05:03
19 Tronix Tronix £0.08 0.0045 5.57% £0.08 £0.08 205,660,658.28 TRX 2022-06-06 11:00:49
20 ChatCoin ChatCoin £0.0009 0.000001 0.13% £0.0008 £0.0011 179,351,216.60 CHAT 2022-06-06 11:00:29
21 Cardano Cardano £0.64 0.08 14.63% £0.56 £0.65 175,796,477.66 ADA 2022-06-06 11:00:50
22 FlyCoin FlyCoin £0.0012 0.0001 10.37% £0.0010 £0.0013 152,661,467.74 FLY 2022-06-06 11:00:13
23 StarterCoin StarterCoin £0.0042 0.0001 2.90% £0.0041 £0.0043 146,898,525.42 STC 2022-06-06 11:00:59
24 Krypton Krypton £0.000085 -0.000003 -3.70% £0.000084 £0.000088 145,328,998.54 KR 2022-06-06 11:00:13
25 XinFin Coin XinFin Coin £0.04 0.0003 0.78% £0.04 £0.04 141,822,481.99 XDC 2022-06-06 11:01:05
26 Tether Tether £1.00 0.0002 0.02% £1.00 £1.00 137,010,356.22 USDT 2022-06-06 11:00:36
27 Yoyow Yoyow £0.0015 0.000037 2.47% £0.0014 £0.0022 132,160,897.88 YOYOW 2022-06-06 11:00:51
28 Zeusshield Zeusshield £0.000091 -0.000002 -2.62% £0.000089 £0.000093 124,572,127.29 ZSC 2022-06-06 11:00:53
29 Ripple Ripple £0.41 0.02 3.82% £0.39 £0.41 122,591,572.70 XRP 2022-06-06 11:05:05
30 Anoncoin Anoncoin £0.20 0.01 5.68% £0.19 £0.20 118,606,966.74 ANC 2022-06-06 11:00:16
31 KeyCoin KeyCoin £0.0044 0.0003 7.24% £0.0041 £0.0045 109,205,456.00 KEY 2022-06-06 11:05:04
32 Revenu Revenu £0.0011 0.000078 7.59% £0.0010 £0.0011 105,341,232.91 REV 2022-06-06 11:00:14
33 Cappasity Cappasity £0.0012 0.0001 10.71% £0.0010 £0.0012 104,175,583.10 CAPP 2022-06-06 11:00:48
34 Synereo Synereo £0.01 0.0005 4.42% £0.01 £0.01 80,849,047.40 AMP 2022-06-06 11:00:11
35 Monkey Monkey £0.0007 0.000012 1.85% £0.0006 £0.0007 80,094,392.06 MNY 2022-06-06 11:00:43
36 Stellar Stellar £0.15 0.0056 3.90% £0.14 £0.15 78,880,660.96 XLM 2022-06-06 11:05:05
37 KATZcoin KATZcoin £0.0010 0.000053 5.68% £0.0009 £0.0011 78,384,097.08 KAT 2022-06-06 11:00:13
38 CleverCoin CleverCoin £0.14 0.0058 4.35% £0.13 £0.14 71,560,902.10 CLV 2022-06-06 11:00:10
39 ArpaCoin ArpaCoin £0.04 0.0024 7.00% £0.03 £0.04 67,306,869.80 ARPA 2022-06-06 11:00:31
40 Civic Civic £0.19 0.01 7.98% £0.18 £0.20 65,607,916.01 CVC 2022-06-06 11:00:35
41 ByteCoin ByteCoin £0.0003 -0.000002 -0.75% £0.0003 £0.0003 56,907,940.15 BCN 2022-06-06 11:05:05
42 Bitcedi Bitcedi £0.0002 0.000001 0.54% £0.0002 £0.0002 56,755,741.80 BXC 2022-06-06 11:00:28
43 Basic Attention Token Basic Attention Token £0.41 0.04 10.16% £0.38 £0.42 55,996,661.53 BAT 2022-06-06 11:00:34
44 Power Ledger Power Ledger £0.33 0.02 7.56% £0.29 £0.39 54,524,869.74 POWR 2022-06-06 11:00:52
45 Steem Steem £0.29 -0.05 -13.45% £0.28 £0.35 52,139,598.61 STEEM 2022-06-06 11:00:11
46 Siacoin Siacoin £0.0059 0.0005 9.39% £0.0054 £0.0059 50,134,618.46 SC 2022-06-06 11:00:10
47 BeachCoin BeachCoin £1.38 0.11 8.49% £1.27 £1.39 47,097,290.68 SAND 2022-06-06 11:00:40
48 Piggy Coin Piggy Coin £0.0012 0.000036 3.11% £0.0010 £0.0012 46,286,014.45 PIGGY 2022-06-06 11:00:08
49 BattleCoin BattleCoin £0.0003 0.000007 2.19% £0.0003 £0.0003 45,240,814.14 BCX 2022-06-06 11:05:02
50 NEM NEM £0.05 0.0037 7.32% £0.05 £0.05 43,594,061.68 XEM 2022-06-06 11:05:05